Terminal Aerodrome Forecast
Issued by NWS Corpus Christi, TX

Home | Current Version | Previous Version | Text Only | Print | Product List | Glossary On
Versions: 1 2 3 4 5 6 7 8 9 10 11 12 13 14
733
FTUS44 KCRP 212320
TAFCRP
TAF
KCRP 212320Z 2200/2224 12013G16KT P6SM SCT035
     FM220300 13007KT P6SM FEW025
     FM221500 13006KT P6SM SCT025 SCT035
     FM221900 11013G17KT P6SM SCT250=

USA.gov is the U.S. government's official web portal to all federal, state and local government web resources and services.